sensor_id;sensor_type;location;lat;lon;timestamp;temperature;humidity
67529;DHT22;54366;51.980;5.856;2023-02-13T00:02:21;8.90;75.50
67529;DHT22;54366;51.980;5.856;2023-02-13T00:04:47;8.90;75.50
67529;DHT22;54366;51.980;5.856;2023-02-13T00:07:13;8.80;75.40
67529;DHT22;54366;51.980;5.856;2023-02-13T00:09:40;8.80;75.60
67529;DHT22;54366;51.980;5.856;2023-02-13T00:12:07;8.80;75.60
67529;DHT22;54366;51.980;5.856;2023-02-13T00:14:36;8.80;75.60
67529;DHT22;54366;51.980;5.856;2023-02-13T00:17:03;8.80;75.80
67529;DHT22;54366;51.980;5.856;2023-02-13T00:19:29;8.80;75.90
67529;DHT22;54366;51.980;5.856;2023-02-13T00:21:55;8.70;75.80
67529;DHT22;54366;51.980;5.856;2023-02-13T00:24:22;8.80;75.90
67529;DHT22;54366;51.980;5.856;2023-02-13T00:26:48;8.70;75.70
67529;DHT22;54366;51.980;5.856;2023-02-13T00:29:15;8.70;75.80
67529;DHT22;54366;51.980;5.856;2023-02-13T00:31:41;8.70;75.70
67529;DHT22;54366;51.980;5.856;2023-02-13T00:34:07;8.70;75.80
67529;DHT22;54366;51.980;5.856;2023-02-13T00:36:34;8.70;75.90
67529;DHT22;54366;51.980;5.856;2023-02-13T00:39:01;8.70;75.90
67529;DHT22;54366;51.980;5.856;2023-02-13T00:41:27;8.70;76.10
67529;DHT22;54366;51.980;5.856;2023-02-13T00:43:53;8.70;75.90
67529;DHT22;54366;51.980;5.856;2023-02-13T00:46:20;8.70;75.90
67529;DHT22;54366;51.980;5.856;2023-02-13T00:48:46;8.70;75.90
67529;DHT22;54366;51.980;5.856;2023-02-13T00:51:12;8.70;75.90
67529;DHT22;54366;51.980;5.856;2023-02-13T00:53:39;8.60;75.90
67529;DHT22;54366;51.980;5.856;2023-02-13T00:56:06;8.70;75.90
67529;DHT22;54366;51.980;5.856;2023-02-13T00:58:32;8.60;75.90
67529;DHT22;54366;51.980;5.856;2023-02-13T01:00:59;8.60;75.90
67529;DHT22;54366;51.980;5.856;2023-02-13T01:03:26;8.60;76.20
67529;DHT22;54366;51.980;5.856;2023-02-13T01:05:52;8.50;76.10
67529;DHT22;54366;51.980;5.856;2023-02-13T01:08:19;8.60;76.00
67529;DHT22;54366;51.980;5.856;2023-02-13T01:10:47;8.60;76.00
67529;DHT22;54366;51.980;5.856;2023-02-13T01:13:16;8.60;76.00
67529;DHT22;54366;51.980;5.856;2023-02-13T01:15:44;8.60;76.10
67529;DHT22;54366;51.980;5.856;2023-02-13T01:18:15;8.60;76.10
67529;DHT22;54366;51.980;5.856;2023-02-13T01:20:43;8.60;76.00
67529;DHT22;54366;51.980;5.856;2023-02-13T01:23:10;8.60;76.00
67529;DHT22;54366;51.980;5.856;2023-02-13T01:25:41;8.50;75.90
67529;DHT22;54366;51.980;5.856;2023-02-13T01:28:07;8.60;76.00
67529;DHT22;54366;51.980;5.856;2023-02-13T01:30:35;8.60;76.10
67529;DHT22;54366;51.980;5.856;2023-02-13T01:33:01;8.60;76.10
67529;DHT22;54366;51.980;5.856;2023-02-13T01:35:28;8.50;76.20
67529;DHT22;54366;51.980;5.856;2023-02-13T01:37:54;8.50;76.30
67529;DHT22;54366;51.980;5.856;2023-02-13T01:40:20;8.50;76.40
67529;DHT22;54366;51.980;5.856;2023-02-13T01:42:47;8.50;76.50
67529;DHT22;54366;51.980;5.856;2023-02-13T01:45:30;8.50;76.60
67529;DHT22;54366;51.980;5.856;2023-02-13T01:48:02;8.50;76.50
67529;DHT22;54366;51.980;5.856;2023-02-13T01:53:30;8.50;76.50
67529;DHT22;54366;51.980;5.856;2023-02-13T01:56:13;8.50;76.60
67529;DHT22;54366;51.980;5.856;2023-02-13T01:58:43;8.50;76.50
67529;DHT22;54366;51.980;5.856;2023-02-13T02:01:10;8.50;76.50
67529;DHT22;54366;51.980;5.856;2023-02-13T02:03:49;8.50;76.60
67529;DHT22;54366;51.980;5.856;2023-02-13T02:06:26;8.50;76.70
67529;DHT22;54366;51.980;5.856;2023-02-13T02:08:56;8.50;76.90
67529;DHT22;54366;51.980;5.856;2023-02-13T02:11:43;8.50;76.70
67529;DHT22;54366;51.980;5.856;2023-02-13T02:14:11;8.50;76.70
67529;DHT22;54366;51.980;5.856;2023-02-13T02:16:37;8.50;76.80
67529;DHT22;54366;51.980;5.856;2023-02-13T02:19:11;8.50;76.80
67529;DHT22;54366;51.980;5.856;2023-02-13T02:21:51;8.50;77.40
67529;DHT22;54366;51.980;5.856;2023-02-13T02:27:43;8.60;76.60
67529;DHT22;54366;51.980;5.856;2023-02-13T02:31:51;8.50;76.50
67529;DHT22;54366;51.980;5.856;2023-02-13T02:34:30;8.50;76.50
67529;DHT22;54366;51.980;5.856;2023-02-13T02:44:07;8.50;76.80
67529;DHT22;54366;51.980;5.856;2023-02-13T02:46:49;8.50;76.80
67529;DHT22;54366;51.980;5.856;2023-02-13T02:49:40;8.50;76.90
67529;DHT22;54366;51.980;5.856;2023-02-13T02:53:12;8.50;77.10
67529;DHT22;54366;51.980;5.856;2023-02-13T02:56:17;8.50;77.10
67529;DHT22;54366;51.980;5.856;2023-02-13T02:59:11;8.50;77.30
67529;DHT22;54366;51.980;5.856;2023-02-13T03:02:01;8.50;77.40
67529;DHT22;54366;51.980;5.856;2023-02-13T03:04:53;8.50;77.30
67529;DHT22;54366;51.980;5.856;2023-02-13T03:07:40;8.50;77.30
67529;DHT22;54366;51.980;5.856;2023-02-13T03:10:14;8.50;77.30
67529;DHT22;54366;51.980;5.856;2023-02-13T03:13:13;8.50;77.40
67529;DHT22;54366;51.980;5.856;2023-02-13T03:15:52;8.50;77.40
67529;DHT22;54366;51.980;5.856;2023-02-13T03:18:40;8.50;78.00
67529;DHT22;54366;51.980;5.856;2023-02-13T03:21:46;8.60;77.50
67529;DHT22;54366;51.980;5.856;2023-02-13T03:24:42;8.60;77.50
67529;DHT22;54366;51.980;5.856;2023-02-13T03:27:21;8.60;77.50
67529;DHT22;54366;51.980;5.856;2023-02-13T03:30:18;8.60;77.50
67529;DHT22;54366;51.980;5.856;2023-02-13T03:36:26;8.60;77.60
67529;DHT22;54366;51.980;5.856;2023-02-13T03:42:30;8.60;77.50
67529;DHT22;54366;51.980;5.856;2023-02-13T03:45:14;8.60;77.60
67529;DHT22;54366;51.980;5.856;2023-02-13T03:48:03;8.60;77.80
67529;DHT22;54366;51.980;5.856;2023-02-13T03:50:58;8.60;78.00
67529;DHT22;54366;51.980;5.856;2023-02-13T03:53:27;8.60;78.00
67529;DHT22;54366;51.980;5.856;2023-02-13T03:55:57;8.60;78.20
67529;DHT22;54366;51.980;5.856;2023-02-13T03:58:48;8.60;78.30
67529;DHT22;54366;51.980;5.856;2023-02-13T04:01:35;8.50;78.20
67529;DHT22;54366;51.980;5.856;2023-02-13T04:04:13;8.50;78.20
67529;DHT22;54366;51.980;5.856;2023-02-13T04:07:05;8.50;78.30
67529;DHT22;54366;51.980;5.856;2023-02-13T04:09:35;8.60;78.30
67529;DHT22;54366;51.980;5.856;2023-02-13T04:12:19;8.60;78.30
67529;DHT22;54366;51.980;5.856;2023-02-13T04:14:54;8.60;78.30
67529;DHT22;54366;51.980;5.856;2023-02-13T04:17:29;8.60;78.20
67529;DHT22;54366;51.980;5.856;2023-02-13T04:19:56;8.60;78.40
67529;DHT22;54366;51.980;5.856;2023-02-13T04:22:22;8.60;78.30
67529;DHT22;54366;51.980;5.856;2023-02-13T04:24:49;8.60;78.30
67529;DHT22;54366;51.980;5.856;2023-02-13T04:27:16;8.60;78.30
67529;DHT22;54366;51.980;5.856;2023-02-13T04:29:43;8.60;78.40
67529;DHT22;54366;51.980;5.856;2023-02-13T04:32:10;8.60;78.40
67529;DHT22;54366;51.980;5.856;2023-02-13T04:34:37;8.60;78.40
67529;DHT22;54366;51.980;5.856;2023-02-13T04:37:03;8.60;78.40
67529;DHT22;54366;51.980;5.856;2023-02-13T04:39:30;8.60;78.50
67529;DHT22;54366;51.980;5.856;2023-02-13T04:41:56;8.60;78.50
67529;DHT22;54366;51.980;5.856;2023-02-13T04:44:22;8.60;78.50
67529;DHT22;54366;51.980;5.856;2023-02-13T04:46:49;8.60;78.50
67529;DHT22;54366;51.980;5.856;2023-02-13T04:49:15;8.60;78.40
67529;DHT22;54366;51.980;5.856;2023-02-13T04:51:41;8.60;78.40
67529;DHT22;54366;51.980;5.856;2023-02-13T04:54:09;8.60;78.50
67529;DHT22;54366;51.980;5.856;2023-02-13T04:56:35;8.60;78.50
67529;DHT22;54366;51.980;5.856;2023-02-13T04:59:02;8.60;78.50
67529;DHT22;54366;51.980;5.856;2023-02-13T05:01:28;8.60;78.60
67529;DHT22;54366;51.980;5.856;2023-02-13T05:03:54;8.60;78.50
67529;DHT22;54366;51.980;5.856;2023-02-13T05:06:21;8.60;78.50
67529;DHT22;54366;51.980;5.856;2023-02-13T05:08:47;8.60;78.60
67529;DHT22;54366;51.980;5.856;2023-02-13T05:11:14;8.60;78.60
67529;DHT22;54366;51.980;5.856;2023-02-13T05:13:40;8.60;78.60
67529;DHT22;54366;51.980;5.856;2023-02-13T05:16:06;8.60;78.70
67529;DHT22;54366;51.980;5.856;2023-02-13T05:18:32;8.60;78.60
67529;DHT22;54366;51.980;5.856;2023-02-13T05:20:59;8.60;78.60
67529;DHT22;54366;51.980;5.856;2023-02-13T05:23:43;8.60;78.60
67529;DHT22;54366;51.980;5.856;2023-02-13T05:26:10;8.60;78.60
67529;DHT22;54366;51.980;5.856;2023-02-13T05:28:36;8.60;78.70
67529;DHT22;54366;51.980;5.856;2023-02-13T05:31:21;8.60;78.70
67529;DHT22;54366;51.980;5.856;2023-02-13T05:33:47;8.60;78.60
67529;DHT22;54366;51.980;5.856;2023-02-13T05:36:14;8.60;78.60
67529;DHT22;54366;51.980;5.856;2023-02-13T05:38:40;8.60;78.70
67529;DHT22;54366;51.980;5.856;2023-02-13T05:41:06;8.60;78.70
67529;DHT22;54366;51.980;5.856;2023-02-13T05:43:33;8.60;78.80
67529;DHT22;54366;51.980;5.856;2023-02-13T05:46:07;8.60;78.80
67529;DHT22;54366;51.980;5.856;2023-02-13T05:48:34;8.60;78.80
67529;DHT22;54366;51.980;5.856;2023-02-13T05:51:01;8.60;78.80
67529;DHT22;54366;51.980;5.856;2023-02-13T05:53:27;8.60;78.80
67529;DHT22;54366;51.980;5.856;2023-02-13T05:55:54;8.60;78.90
67529;DHT22;54366;51.980;5.856;2023-02-13T05:58:21;8.60;78.90
67529;DHT22;54366;51.980;5.856;2023-02-13T06:00:47;8.60;78.90
67529;DHT22;54366;51.980;5.856;2023-02-13T06:03:14;8.60;78.90
67529;DHT22;54366;51.980;5.856;2023-02-13T06:05:40;8.60;78.90
67529;DHT22;54366;51.980;5.856;2023-02-13T06:08:06;8.60;78.90
67529;DHT22;54366;51.980;5.856;2023-02-13T06:10:33;8.60;79.00
67529;DHT22;54366;51.980;5.856;2023-02-13T06:12:59;8.60;79.00
67529;DHT22;54366;51.980;5.856;2023-02-13T06:15:25;8.60;79.00
67529;DHT22;54366;51.980;5.856;2023-02-13T06:17:52;8.60;78.90
67529;DHT22;54366;51.980;5.856;2023-02-13T06:20:18;8.60;78.90
67529;DHT22;54366;51.980;5.856;2023-02-13T06:22:50;8.60;78.80
67529;DHT22;54366;51.980;5.856;2023-02-13T06:25:16;8.60;78.80
67529;DHT22;54366;51.980;5.856;2023-02-13T06:27:43;8.60;78.80
67529;DHT22;54366;51.980;5.856;2023-02-13T06:30:10;8.60;78.70
67529;DHT22;54366;51.980;5.856;2023-02-13T06:32:37;8.70;78.80
67529;DHT22;54366;51.980;5.856;2023-02-13T06:35:03;8.60;78.80
67529;DHT22;54366;51.980;5.856;2023-02-13T06:37:30;8.60;78.80
67529;DHT22;54366;51.980;5.856;2023-02-13T06:39:56;8.70;78.90
67529;DHT22;54366;51.980;5.856;2023-02-13T06:42:23;8.60;78.90
67529;DHT22;54366;51.980;5.856;2023-02-13T06:44:49;8.70;78.90
67529;DHT22;54366;51.980;5.856;2023-02-13T06:47:15;8.60;78.90
67529;DHT22;54366;51.980;5.856;2023-02-13T06:49:42;8.70;79.00
67529;DHT22;54366;51.980;5.856;2023-02-13T06:52:08;8.70;79.00
67529;DHT22;54366;51.980;5.856;2023-02-13T06:54:34;8.70;79.00
67529;DHT22;54366;51.980;5.856;2023-02-13T06:57:00;8.60;79.00
67529;DHT22;54366;51.980;5.856;2023-02-13T06:59:27;8.70;79.00
67529;DHT22;54366;51.980;5.856;2023-02-13T07:01:53;8.70;79.10
67529;DHT22;54366;51.980;5.856;2023-02-13T07:04:19;8.70;79.00
67529;DHT22;54366;51.980;5.856;2023-02-13T07:06:46;8.70;79.00
67529;DHT22;54366;51.980;5.856;2023-02-13T07:09:12;8.70;79.00
67529;DHT22;54366;51.980;5.856;2023-02-13T07:11:38;8.70;79.00
67529;DHT22;54366;51.980;5.856;2023-02-13T07:14:08;8.70;79.00
67529;DHT22;54366;51.980;5.856;2023-02-13T07:16:35;8.70;79.00
67529;DHT22;54366;51.980;5.856;2023-02-13T07:19:01;8.70;79.00
67529;DHT22;54366;51.980;5.856;2023-02-13T07:21:27;8.70;78.90
67529;DHT22;54366;51.980;5.856;2023-02-13T07:23:54;8.80;79.00
67529;DHT22;54366;51.980;5.856;2023-02-13T07:26:20;8.70;79.00
67529;DHT22;54366;51.980;5.856;2023-02-13T07:28:46;8.70;79.10
67529;DHT22;54366;51.980;5.856;2023-02-13T07:31:13;8.80;79.20
67529;DHT22;54366;51.980;5.856;2023-02-13T07:33:39;8.80;79.10
67529;DHT22;54366;51.980;5.856;2023-02-13T07:36:06;8.80;79.10
67529;DHT22;54366;51.980;5.856;2023-02-13T07:38:32;8.80;79.00
67529;DHT22;54366;51.980;5.856;2023-02-13T07:41:00;8.80;79.10
67529;DHT22;54366;51.980;5.856;2023-02-13T07:43:26;8.80;79.10
67529;DHT22;54366;51.980;5.856;2023-02-13T07:45:53;8.80;79.10
67529;DHT22;54366;51.980;5.856;2023-02-13T07:48:23;8.90;79.10
67529;DHT22;54366;51.980;5.856;2023-02-13T07:50:49;8.90;79.10
67529;DHT22;54366;51.980;5.856;2023-02-13T07:53:16;8.90;79.10
67529;DHT22;54366;51.980;5.856;2023-02-13T07:55:42;8.90;79.00
67529;DHT22;54366;51.980;5.856;2023-02-13T07:58:08;8.90;79.00
67529;DHT22;54366;51.980;5.856;2023-02-13T08:00:35;9.00;79.00
67529;DHT22;54366;51.980;5.856;2023-02-13T08:03:01;9.00;79.00
67529;DHT22;54366;51.980;5.856;2023-02-13T08:05:28;9.00;79.00
67529;DHT22;54366;51.980;5.856;2023-02-13T08:07:56;9.00;78.90
67529;DHT22;54366;51.980;5.856;2023-02-13T08:10:22;9.10;78.90
67529;DHT22;54366;51.980;5.856;2023-02-13T08:13:08;9.10;78.90
67529;DHT22;54366;51.980;5.856;2023-02-13T08:15:35;9.20;78.90
67529;DHT22;54366;51.980;5.856;2023-02-13T08:18:01;9.10;78.80
67529;DHT22;54366;51.980;5.856;2023-02-13T08:20:27;9.10;78.80
67529;DHT22;54366;51.980;5.856;2023-02-13T08:22:59;9.20;78.70
67529;DHT22;54366;51.980;5.856;2023-02-13T08:25:27;9.20;78.70
67529;DHT22;54366;51.980;5.856;2023-02-13T08:27:53;9.20;78.60
67529;DHT22;54366;51.980;5.856;2023-02-13T08:30:19;9.30;78.60
67529;DHT22;54366;51.980;5.856;2023-02-13T08:32:45;9.30;78.50
67529;DHT22;54366;51.980;5.856;2023-02-13T08:35:12;9.30;78.40
67529;DHT22;54366;51.980;5.856;2023-02-13T08:37:38;9.30;78.40
67529;DHT22;54366;51.980;5.856;2023-02-13T08:40:05;9.40;78.40
67529;DHT22;54366;51.980;5.856;2023-02-13T08:42:36;9.40;78.20
67529;DHT22;54366;51.980;5.856;2023-02-13T08:45:03;9.50;78.20
67529;DHT22;54366;51.980;5.856;2023-02-13T08:47:31;9.60;78.00
67529;DHT22;54366;51.980;5.856;2023-02-13T08:49:57;9.60;78.00
67529;DHT22;54366;51.980;5.856;2023-02-13T08:52:23;9.70;77.90
67529;DHT22;54366;51.980;5.856;2023-02-13T08:54:50;9.80;77.70
67529;DHT22;54366;51.980;5.856;2023-02-13T08:57:16;9.80;77.30
67529;DHT22;54366;51.980;5.856;2023-02-13T08:59:42;9.90;77.20
67529;DHT22;54366;51.980;5.856;2023-02-13T09:02:15;9.90;77.10
67529;DHT22;54366;51.980;5.856;2023-02-13T09:04:42;10.00;77.20
67529;DHT22;54366;51.980;5.856;2023-02-13T09:07:08;10.00;77.10
67529;DHT22;54366;51.980;5.856;2023-02-13T09:09:34;10.10;77.00
67529;DHT22;54366;51.980;5.856;2023-02-13T09:12:01;10.20;76.80
67529;DHT22;54366;51.980;5.856;2023-02-13T09:14:27;10.30;76.70
67529;DHT22;54366;51.980;5.856;2023-02-13T09:16:53;10.30;76.50
67529;DHT22;54366;51.980;5.856;2023-02-13T09:19:19;10.30;75.70
67529;DHT22;54366;51.980;5.856;2023-02-13T09:21:46;10.40;75.60
67529;DHT22;54366;51.980;5.856;2023-02-13T09:24:12;10.40;75.80
67529;DHT22;54366;51.980;5.856;2023-02-13T09:26:39;10.40;75.80
67529;DHT22;54366;51.980;5.856;2023-02-13T09:29:05;10.40;75.70
67529;DHT22;54366;51.980;5.856;2023-02-13T09:31:31;10.50;75.80
67529;DHT22;54366;51.980;5.856;2023-02-13T09:33:57;10.50;76.10
67529;DHT22;54366;51.980;5.856;2023-02-13T09:36:24;10.60;75.60
67529;DHT22;54366;51.980;5.856;2023-02-13T09:38:52;10.70;75.50
67529;DHT22;54366;51.980;5.856;2023-02-13T09:41:28;10.70;75.20
67529;DHT22;54366;51.980;5.856;2023-02-13T09:44:21;10.70;75.00
67529;DHT22;54366;51.980;5.856;2023-02-13T09:47:15;10.70;74.80
67529;DHT22;54366;51.980;5.856;2023-02-13T09:50:05;10.70;74.50
67529;DHT22;54366;51.980;5.856;2023-02-13T09:52:34;10.70;74.70
67529;DHT22;54366;51.980;5.856;2023-02-13T09:55:02;10.70;74.80
67529;DHT22;54366;51.980;5.856;2023-02-13T09:57:39;10.80;74.90
67529;DHT22;54366;51.980;5.856;2023-02-13T10:00:18;10.90;74.60
67529;DHT22;54366;51.980;5.856;2023-02-13T10:06:18;11.00;73.90
67529;DHT22;54366;51.980;5.856;2023-02-13T10:09:12;11.10;73.90
67529;DHT22;54366;51.980;5.856;2023-02-13T10:12:07;11.20;73.90
67529;DHT22;54366;51.980;5.856;2023-02-13T10:15:18;11.30;73.80
67529;DHT22;54366;51.980;5.856;2023-02-13T10:18:11;11.30;72.90
67529;DHT22;54366;51.980;5.856;2023-02-13T10:20:53;11.30;72.80
67529;DHT22;54366;51.980;5.856;2023-02-13T10:23:56;11.30;72.30
67529;DHT22;54366;51.980;5.856;2023-02-13T10:26:33;11.20;72.50
67529;DHT22;54366;51.980;5.856;2023-02-13T10:29:24;11.20;72.90
67529;DHT22;54366;51.980;5.856;2023-02-13T10:32:15;11.30;72.60
67529;DHT22;54366;51.980;5.856;2023-02-13T10:34:44;11.30;72.60
67529;DHT22;54366;51.980;5.856;2023-02-13T10:37:19;11.40;72.20
67529;DHT22;54366;51.980;5.856;2023-02-13T10:39:48;11.50;72.70
67529;DHT22;54366;51.980;5.856;2023-02-13T10:42:35;11.60;72.60
67529;DHT22;54366;51.980;5.856;2023-02-13T10:49:11;11.80;72.10
67529;DHT22;54366;51.980;5.856;2023-02-13T10:52:07;12.00;71.30
67529;DHT22;54366;51.980;5.856;2023-02-13T10:54:56;12.10;71.00
67529;DHT22;54366;51.980;5.856;2023-02-13T11:00:30;12.20;70.40
67529;DHT22;54366;51.980;5.856;2023-02-13T11:03:00;12.20;70.50
67529;DHT22;54366;51.980;5.856;2023-02-13T11:05:34;12.40;70.20
67529;DHT22;54366;51.980;5.856;2023-02-13T11:08:01;12.50;69.90
67529;DHT22;54366;51.980;5.856;2023-02-13T11:10:28;12.40;69.30
67529;DHT22;54366;51.980;5.856;2023-02-13T11:12:54;12.50;68.60
67529;DHT22;54366;51.980;5.856;2023-02-13T11:15:27;12.50;68.70
67529;DHT22;54366;51.980;5.856;2023-02-13T11:18:00;12.60;69.10
67529;DHT22;54366;51.980;5.856;2023-02-13T11:23:40;12.70;68.30
67529;DHT22;54366;51.980;5.856;2023-02-13T11:29:03;12.90;68.30
67529;DHT22;54366;51.980;5.856;2023-02-13T11:31:32;13.00;67.40
67529;DHT22;54366;51.980;5.856;2023-02-13T11:33:59;13.00;67.70
67529;DHT22;54366;51.980;5.856;2023-02-13T11:36:42;13.00;67.50
67529;DHT22;54366;51.980;5.856;2023-02-13T11:39:20;13.20;67.50
67529;DHT22;54366;51.980;5.856;2023-02-13T11:41:48;13.30;67.60
67529;DHT22;54366;51.980;5.856;2023-02-13T11:44:42;13.40;66.90
67529;DHT22;54366;51.980;5.856;2023-02-13T11:47:09;13.40;66.40
67529;DHT22;54366;51.980;5.856;2023-02-13T11:49:44;13.50;66.30
67529;DHT22;54366;51.980;5.856;2023-02-13T11:52:27;13.60;66.20
67529;DHT22;54366;51.980;5.856;2023-02-13T11:55:22;13.70;65.60
67529;DHT22;54366;51.980;5.856;2023-02-13T11:58:02;13.70;65.60
67529;DHT22;54366;51.980;5.856;2023-02-13T12:00:34;13.70;65.00
67529;DHT22;54366;51.980;5.856;2023-02-13T12:03:40;13.60;65.50
67529;DHT22;54366;51.980;5.856;2023-02-13T12:06:14;13.60;65.00
67529;DHT22;54366;51.980;5.856;2023-02-13T12:08:45;13.70;65.20
67529;DHT22;54366;51.980;5.856;2023-02-13T12:11:34;13.70;64.90
67529;DHT22;54366;51.980;5.856;2023-02-13T12:14:01;13.70;63.90
67529;DHT22;54366;51.980;5.856;2023-02-13T12:16:39;13.70;65.00
67529;DHT22;54366;51.980;5.856;2023-02-13T12:19:13;13.80;64.70
67529;DHT22;54366;51.980;5.856;2023-02-13T12:25:24;13.90;64.40
67529;DHT22;54366;51.980;5.856;2023-02-13T12:28:56;14.00;64.90
67529;DHT22;54366;51.980;5.856;2023-02-13T12:34:34;14.10;63.80
67529;DHT22;54366;51.980;5.856;2023-02-13T12:37:59;14.20;64.20
67529;DHT22;54366;51.980;5.856;2023-02-13T12:40:45;14.30;63.20
67529;DHT22;54366;51.980;5.856;2023-02-13T12:43:56;14.30;62.80
67529;DHT22;54366;51.980;5.856;2023-02-13T12:46:45;14.40;62.80
67529;DHT22;54366;51.980;5.856;2023-02-13T12:49:58;14.40;62.90
67529;DHT22;54366;51.980;5.856;2023-02-13T12:52:48;14.50;63.00
67529;DHT22;54366;51.980;5.856;2023-02-13T12:55:41;14.60;62.70
67529;DHT22;54366;51.980;5.856;2023-02-13T12:58:50;14.70;63.00
67529;DHT22;54366;51.980;5.856;2023-02-13T13:01:38;14.70;62.30
67529;DHT22;54366;51.980;5.856;2023-02-13T13:10:02;14.70;61.90
67529;DHT22;54366;51.980;5.856;2023-02-13T13:14:20;14.80;61.20
67529;DHT22;54366;51.980;5.856;2023-02-13T13:19:04;14.70;62.10
67529;DHT22;54366;51.980;5.856;2023-02-13T13:22:09;14.70;61.30
67529;DHT22;54366;51.980;5.856;2023-02-13T13:27:44;14.60;61.50
67529;DHT22;54366;51.980;5.856;2023-02-13T13:30:27;14.50;61.00
67529;DHT22;54366;51.980;5.856;2023-02-13T13:33:06;14.40;61.00
67529;DHT22;54366;51.980;5.856;2023-02-13T13:35:38;14.40;61.20
67529;DHT22;54366;51.980;5.856;2023-02-13T13:38:27;14.40;61.80
67529;DHT22;54366;51.980;5.856;2023-02-13T13:41:04;14.30;61.90
67529;DHT22;54366;51.980;5.856;2023-02-13T13:47:24;14.10;62.50
67529;DHT22;54366;51.980;5.856;2023-02-13T13:50:02;14.10;62.30
67529;DHT22;54366;51.980;5.856;2023-02-13T13:52:33;14.00;62.60
67529;DHT22;54366;51.980;5.856;2023-02-13T13:55:00;14.00;63.10
67529;DHT22;54366;51.980;5.856;2023-02-13T13:57:58;13.90;63.20
67529;DHT22;54366;51.980;5.856;2023-02-13T14:00:28;13.90;63.50
67529;DHT22;54366;51.980;5.856;2023-02-13T14:03:23;13.80;63.70
67529;DHT22;54366;51.980;5.856;2023-02-13T14:05:58;13.80;63.70
67529;DHT22;54366;51.980;5.856;2023-02-13T14:08:58;13.80;63.80
67529;DHT22;54366;51.980;5.856;2023-02-13T14:11:37;13.80;64.10
67529;DHT22;54366;51.980;5.856;2023-02-13T14:17:13;13.70;64.40
67529;DHT22;54366;51.980;5.856;2023-02-13T14:19:45;13.70;64.30
67529;DHT22;54366;51.980;5.856;2023-02-13T14:22:39;13.70;64.80
67529;DHT22;54366;51.980;5.856;2023-02-13T14:25:18;13.70;64.70
67529;DHT22;54366;51.980;5.856;2023-02-13T14:27:56;13.60;64.60
67529;DHT22;54366;51.980;5.856;2023-02-13T14:30:37;13.60;64.90
67529;DHT22;54366;51.980;5.856;2023-02-13T14:33:06;13.50;65.10
67529;DHT22;54366;51.980;5.856;2023-02-13T14:35:36;13.50;65.20
67529;DHT22;54366;51.980;5.856;2023-02-13T14:38:05;13.50;65.30
67529;DHT22;54366;51.980;5.856;2023-02-13T14:41:02;13.50;65.30
67529;DHT22;54366;51.980;5.856;2023-02-13T14:43:49;13.50;65.30
67529;DHT22;54366;51.980;5.856;2023-02-13T14:46:32;13.50;65.40
67529;DHT22;54366;51.980;5.856;2023-02-13T14:49:19;13.50;65.50
67529;DHT22;54366;51.980;5.856;2023-02-13T14:52:00;13.50;65.20
67529;DHT22;54366;51.980;5.856;2023-02-13T14:54:33;13.40;65.00
67529;DHT22;54366;51.980;5.856;2023-02-13T14:57:09;13.50;64.90
67529;DHT22;54366;51.980;5.856;2023-02-13T14:59:44;13.40;65.20
67529;DHT22;54366;51.980;5.856;2023-02-13T15:02:31;13.40;65.40
67529;DHT22;54366;51.980;5.856;2023-02-13T15:05:02;13.40;65.50
67529;DHT22;54366;51.980;5.856;2023-02-13T15:07:36;13.40;65.40
67529;DHT22;54366;51.980;5.856;2023-02-13T15:10:31;13.40;65.50
67529;DHT22;54366;51.980;5.856;2023-02-13T15:12:58;13.40;65.40
67529;DHT22;54366;51.980;5.856;2023-02-13T15:15:33;13.40;65.50
67529;DHT22;54366;51.980;5.856;2023-02-13T15:18:08;13.30;65.10
67529;DHT22;54366;51.980;5.856;2023-02-13T15:20:37;13.30;65.40
67529;DHT22;54366;51.980;5.856;2023-02-13T15:23:06;13.30;65.60
67529;DHT22;54366;51.980;5.856;2023-02-13T15:25:40;13.30;65.70
67529;DHT22;54366;51.980;5.856;2023-02-13T15:28:07;13.30;65.90
67529;DHT22;54366;51.980;5.856;2023-02-13T15:31:34;13.20;65.90
67529;DHT22;54366;51.980;5.856;2023-02-13T15:33:46;13.20;65.90
67529;DHT22;54366;51.980;5.856;2023-02-13T15:36:18;13.20;65.90
67529;DHT22;54366;51.980;5.856;2023-02-13T15:38:45;13.20;66.10
67529;DHT22;54366;51.980;5.856;2023-02-13T15:41:23;13.20;66.20
67529;DHT22;54366;51.980;5.856;2023-02-13T15:43:56;13.20;66.40
67529;DHT22;54366;51.980;5.856;2023-02-13T15:46:32;13.20;66.50
67529;DHT22;54366;51.980;5.856;2023-02-13T15:49:15;13.20;66.50
67529;DHT22;54366;51.980;5.856;2023-02-13T15:51:42;13.20;66.40
67529;DHT22;54366;51.980;5.856;2023-02-13T15:54:24;13.10;66.20
67529;DHT22;54366;51.980;5.856;2023-02-13T15:56:53;13.10;66.60
67529;DHT22;54366;51.980;5.856;2023-02-13T15:59:20;13.10;66.80
67529;DHT22;54366;51.980;5.856;2023-02-13T16:01:47;13.10;66.80
67529;DHT22;54366;51.980;5.856;2023-02-13T16:04:16;13.10;66.80
67529;DHT22;54366;51.980;5.856;2023-02-13T16:06:45;13.10;67.60
67529;DHT22;54366;51.980;5.856;2023-02-13T16:09:34;13.00;67.10
67529;DHT22;54366;51.980;5.856;2023-02-13T16:12:06;13.00;67.10
67529;DHT22;54366;51.980;5.856;2023-02-13T16:15:01;12.90;67.20
67529;DHT22;54366;51.980;5.856;2023-02-13T16:17:32;12.90;67.30
67529;DHT22;54366;51.980;5.856;2023-02-13T16:20:31;12.90;67.60
67529;DHT22;54366;51.980;5.856;2023-02-13T16:23:18;12.80;67.60
67529;DHT22;54366;51.980;5.856;2023-02-13T16:25:46;12.70;67.60
67529;DHT22;54366;51.980;5.856;2023-02-13T16:28:24;12.70;67.60
67529;DHT22;54366;51.980;5.856;2023-02-13T16:31:00;12.70;67.80
67529;DHT22;54366;51.980;5.856;2023-02-13T16:33:32;12.60;67.80
67529;DHT22;54366;51.980;5.856;2023-02-13T16:36:26;12.60;68.00
67529;DHT22;54366;51.980;5.856;2023-02-13T16:38:53;12.50;68.10
67529;DHT22;54366;51.980;5.856;2023-02-13T16:41:30;12.40;68.30
67529;DHT22;54366;51.980;5.856;2023-02-13T16:44:01;12.40;68.60
67529;DHT22;54366;51.980;5.856;2023-02-13T16:46:41;12.30;68.60
67529;DHT22;54366;51.980;5.856;2023-02-13T16:49:21;12.20;68.80
67529;DHT22;54366;51.980;5.856;2023-02-13T16:51:51;12.20;68.90
67529;DHT22;54366;51.980;5.856;2023-02-13T16:54:36;12.10;68.90
67529;DHT22;54366;51.980;5.856;2023-02-13T16:57:19;12.00;69.10
67529;DHT22;54366;51.980;5.856;2023-02-13T16:59:54;11.90;69.90
67529;DHT22;54366;51.980;5.856;2023-02-13T17:02:47;11.90;69.60
67529;DHT22;54366;51.980;5.856;2023-02-13T17:05:21;11.70;69.60
67529;DHT22;54366;51.980;5.856;2023-02-13T17:07:51;11.70;69.80
67529;DHT22;54366;51.980;5.856;2023-02-13T17:10:35;11.60;70.00
67529;DHT22;54366;51.980;5.856;2023-02-13T17:13:14;11.50;70.30
67529;DHT22;54366;51.980;5.856;2023-02-13T17:15:46;11.40;70.60
67529;DHT22;54366;51.980;5.856;2023-02-13T17:18:12;11.30;70.50
67529;DHT22;54366;51.980;5.856;2023-02-13T17:20:41;11.20;70.70
67529;DHT22;54366;51.980;5.856;2023-02-13T17:23:17;11.20;70.70
67529;DHT22;54366;51.980;5.856;2023-02-13T17:25:44;11.10;71.00
67529;DHT22;54366;51.980;5.856;2023-02-13T17:28:17;10.90;71.20
67529;DHT22;54366;51.980;5.856;2023-02-13T17:30:44;10.90;71.30